sensor_id;sensor_type;location;lat;lon;timestamp;P1;P2;P0
62054;PMS5003;48653;51.742;-1.256;2023-04-25T00:01:51;10;8;
62054;PMS5003;48653;51.742;-1.256;2023-04-25T00:04:16;6;6;
62054;PMS5003;48653;51.742;-1.256;2023-04-25T00:06:42;8;6;
62054;PMS5003;48653;51.742;-1.256;2023-04-25T00:09:07;13;7;
62054;PMS5003;48653;51.742;-1.256;2023-04-25T00:11:33;9;7;
62054;PMS5003;48653;51.742;-1.256;2023-04-25T00:13:59;12;10;
62054;PMS5003;48653;51.742;-1.256;2023-04-25T00:16:25;8;8;
62054;PMS5003;48653;51.742;-1.256;2023-04-25T00:18:50;10;8;
62054;PMS5003;48653;51.742;-1.256;2023-04-25T00:21:15;9;7;
62054;PMS5003;48653;51.742;-1.256;2023-04-25T00:23:40;9;7;
62054;PMS5003;48653;51.742;-1.256;2023-04-25T00:26:06;9;9;
62054;PMS5003;48653;51.742;-1.256;2023-04-25T00:28:31;9;9;
62054;PMS5003;48653;51.742;-1.256;2023-04-25T00:30:57;11;9;
62054;PMS5003;48653;51.742;-1.256;2023-04-25T00:33:22;9;8;
62054;PMS5003;48653;51.742;-1.256;2023-04-25T00:35:48;12;9;
62054;PMS5003;48653;51.742;-1.256;2023-04-25T00:38:13;9;9;
62054;PMS5003;48653;51.742;-1.256;2023-04-25T00:40:39;9;7;
62054;PMS5003;48653;51.742;-1.256;2023-04-25T00:43:04;11;7;
62054;PMS5003;48653;51.742;-1.256;2023-04-25T00:45:30;10;7;
62054;PMS5003;48653;51.742;-1.256;2023-04-25T00:47:55;5;5;
62054;PMS5003;48653;51.742;-1.256;2023-04-25T00:50:20;10;7;
62054;PMS5003;48653;51.742;-1.256;2023-04-25T00:52:46;5;5;
62054;PMS5003;48653;51.742;-1.256;2023-04-25T00:55:11;7;6;
62054;PMS5003;48653;51.742;-1.256;2023-04-25T00:57:36;5;5;
62054;PMS5003;48653;51.742;-1.256;2023-04-25T01:00:02;8;7;
62054;PMS5003;48653;51.742;-1.256;2023-04-25T01:02:27;7;6;
62054;PMS5003;48653;51.742;-1.256;2023-04-25T01:04:52;4;4;
62054;PMS5003;48653;51.742;-1.256;2023-04-25T01:07:17;4;4;
62054;PMS5003;48653;51.742;-1.256;2023-04-25T01:09:42;9;7;
62054;PMS5003;48653;51.742;-1.256;2023-04-25T01:12:07;10;6;
62054;PMS5003;48653;51.742;-1.256;2023-04-25T01:14:33;7;6;
62054;PMS5003;48653;51.742;-1.256;2023-04-25T01:16:59;9;9;
62054;PMS5003;48653;51.742;-1.256;2023-04-25T01:19:24;7;5;
62054;PMS5003;48653;51.742;-1.256;2023-04-25T01:21:49;7;5;
62054;PMS5003;48653;51.742;-1.256;2023-04-25T01:24:14;9;6;
62054;PMS5003;48653;51.742;-1.256;2023-04-25T01:26:40;6;6;
62054;PMS5003;48653;51.742;-1.256;2023-04-25T01:29:05;8;4;
62054;PMS5003;48653;51.742;-1.256;2023-04-25T01:31:30;7;4;
62054;PMS5003;48653;51.742;-1.256;2023-04-25T01:33:55;7;4;
62054;PMS5003;48653;51.742;-1.256;2023-04-25T01:36:21;5;3;
62054;PMS5003;48653;51.742;-1.256;2023-04-25T01:38:46;11;7;
62054;PMS5003;48653;51.742;-1.256;2023-04-25T01:41:12;7;4;
62054;PMS5003;48653;51.742;-1.256;2023-04-25T01:43:37;6;5;
62054;PMS5003;48653;51.742;-1.256;2023-04-25T01:46:02;5;4;
62054;PMS5003;48653;51.742;-1.256;2023-04-25T01:48:27;4;4;
62054;PMS5003;48653;51.742;-1.256;2023-04-25T01:50:53;7;6;
62054;PMS5003;48653;51.742;-1.256;2023-04-25T01:53:19;11;8;
62054;PMS5003;48653;51.742;-1.256;2023-04-25T01:55:44;4;4;
62054;PMS5003;48653;51.742;-1.256;2023-04-25T01:58:09;6;5;
62054;PMS5003;48653;51.742;-1.256;2023-04-25T02:00:34;7;5;
62054;PMS5003;48653;51.742;-1.256;2023-04-25T02:03:00;6;6;
62054;PMS5003;48653;51.742;-1.256;2023-04-25T02:05:25;7;4;
62054;PMS5003;48653;51.742;-1.256;2023-04-25T02:07:50;7;6;
62054;PMS5003;48653;51.742;-1.256;2023-04-25T02:10:15;11;7;
62054;PMS5003;48653;51.742;-1.256;2023-04-25T02:12:41;11;8;
62054;PMS5003;48653;51.742;-1.256;2023-04-25T02:15:06;6;5;
62054;PMS5003;48653;51.742;-1.256;2023-04-25T02:17:31;4;4;
62054;PMS5003;48653;51.742;-1.256;2023-04-25T02:19:56;6;6;
62054;PMS5003;48653;51.742;-1.256;2023-04-25T02:22:22;6;6;
62054;PMS5003;48653;51.742;-1.256;2023-04-25T02:24:47;7;6;
62054;PMS5003;48653;51.742;-1.256;2023-04-25T02:27:13;10;9;
62054;PMS5003;48653;51.742;-1.256;2023-04-25T02:29:38;6;6;
62054;PMS5003;48653;51.742;-1.256;2023-04-25T02:32:03;6;6;
62054;PMS5003;48653;51.742;-1.256;2023-04-25T02:34:28;10;7;
62054;PMS5003;48653;51.742;-1.256;2023-04-25T02:36:54;7;7;
62054;PMS5003;48653;51.742;-1.256;2023-04-25T02:39:19;5;5;
62054;PMS5003;48653;51.742;-1.256;2023-04-25T02:41:45;6;5;
62054;PMS5003;48653;51.742;-1.256;2023-04-25T02:44:10;8;6;
62054;PMS5003;48653;51.742;-1.256;2023-04-25T02:46:36;8;6;
62054;PMS5003;48653;51.742;-1.256;2023-04-25T02:49:01;7;5;
62054;PMS5003;48653;51.742;-1.256;2023-04-25T02:51:27;14;11;
62054;PMS5003;48653;51.742;-1.256;2023-04-25T02:53:52;7;6;
62054;PMS5003;48653;51.742;-1.256;2023-04-25T02:56:17;6;5;
62054;PMS5003;48653;51.742;-1.256;2023-04-25T02:58:43;8;8;
62054;PMS5003;48653;51.742;-1.256;2023-04-25T03:01:08;7;5;
62054;PMS5003;48653;51.742;-1.256;2023-04-25T03:03:33;9;6;
62054;PMS5003;48653;51.742;-1.256;2023-04-25T03:05:59;7;7;
62054;PMS5003;48653;51.742;-1.256;2023-04-25T03:08:24;8;6;
62054;PMS5003;48653;51.742;-1.256;2023-04-25T03:10:49;7;5;
62054;PMS5003;48653;51.742;-1.256;2023-04-25T03:13:14;8;6;
62054;PMS5003;48653;51.742;-1.256;2023-04-25T03:15:39;8;8;
62054;PMS5003;48653;51.742;-1.256;2023-04-25T03:18:05;9;6;
62054;PMS5003;48653;51.742;-1.256;2023-04-25T03:20:31;13;10;
62054;PMS5003;48653;51.742;-1.256;2023-04-25T03:22:57;14;6;
62054;PMS5003;48653;51.742;-1.256;2023-04-25T03:25:22;8;8;
62054;PMS5003;48653;51.742;-1.256;2023-04-25T03:27:48;11;10;
62054;PMS5003;48653;51.742;-1.256;2023-04-25T03:30:13;7;7;
62054;PMS5003;48653;51.742;-1.256;2023-04-25T03:32:39;4;4;
62054;PMS5003;48653;51.742;-1.256;2023-04-25T03:35:04;8;8;
62054;PMS5003;48653;51.742;-1.256;2023-04-25T03:37:29;9;7;
62054;PMS5003;48653;51.742;-1.256;2023-04-25T03:39:54;6;6;
62054;PMS5003;48653;51.742;-1.256;2023-04-25T03:42:19;12;9;
62054;PMS5003;48653;51.742;-1.256;2023-04-25T03:44:44;9;7;
62054;PMS5003;48653;51.742;-1.256;2023-04-25T03:47:10;10;6;
62054;PMS5003;48653;51.742;-1.256;2023-04-25T03:49:36;11;6;
62054;PMS5003;48653;51.742;-1.256;2023-04-25T03:52:02;8;7;
62054;PMS5003;48653;51.742;-1.256;2023-04-25T03:54:28;12;7;
62054;PMS5003;48653;51.742;-1.256;2023-04-25T03:56:53;11;7;
62054;PMS5003;48653;51.742;-1.256;2023-04-25T03:59:19;9;6;
62054;PMS5003;48653;51.742;-1.256;2023-04-25T04:01:44;10;8;
62054;PMS5003;48653;51.742;-1.256;2023-04-25T04:04:09;8;6;
62054;PMS5003;48653;51.742;-1.256;2023-04-25T04:06:35;10;9;
62054;PMS5003;48653;51.742;-1.256;2023-04-25T04:09:00;9;7;
62054;PMS5003;48653;51.742;-1.256;2023-04-25T04:11:25;9;9;
62054;PMS5003;48653;51.742;-1.256;2023-04-25T04:13:50;15;11;
62054;PMS5003;48653;51.742;-1.256;2023-04-25T04:16:16;12;9;
62054;PMS5003;48653;51.742;-1.256;2023-04-25T04:18:41;19;8;
62054;PMS5003;48653;51.742;-1.256;2023-04-25T04:21:07;14;8;
62054;PMS5003;48653;51.742;-1.256;2023-04-25T04:23:34;13;10;
62054;PMS5003;48653;51.742;-1.256;2023-04-25T04:25:59;13;12;
62054;PMS5003;48653;51.742;-1.256;2023-04-25T04:28:24;16;10;
62054;PMS5003;48653;51.742;-1.256;2023-04-25T04:30:49;8;8;
62054;PMS5003;48653;51.742;-1.256;2023-04-25T04:33:14;12;9;
62054;PMS5003;48653;51.742;-1.256;2023-04-25T04:35:40;7;7;
62054;PMS5003;48653;51.742;-1.256;2023-04-25T04:38:05;12;10;
62054;PMS5003;48653;51.742;-1.256;2023-04-25T04:40:30;9;7;
62054;PMS5003;48653;51.742;-1.256;2023-04-25T04:42:55;9;9;
62054;PMS5003;48653;51.742;-1.256;2023-04-25T04:45:20;16;10;
62054;PMS5003;48653;51.742;-1.256;2023-04-25T04:47:46;25;14;
62054;PMS5003;48653;51.742;-1.256;2023-04-25T04:50:11;10;9;
62054;PMS5003;48653;51.742;-1.256;2023-04-25T04:52:37;19;14;
62054;PMS5003;48653;51.742;-1.256;2023-04-25T04:55:02;12;12;
62054;PMS5003;48653;51.742;-1.256;2023-04-25T04:57:27;11;10;
62054;PMS5003;48653;51.742;-1.256;2023-04-25T04:59:52;12;8;
62054;PMS5003;48653;51.742;-1.256;2023-04-25T05:02:18;17;12;
62054;PMS5003;48653;51.742;-1.256;2023-04-25T05:04:43;12;10;
62054;PMS5003;48653;51.742;-1.256;2023-04-25T05:07:09;8;7;
62054;PMS5003;48653;51.742;-1.256;2023-04-25T05:09:35;10;8;
62054;PMS5003;48653;51.742;-1.256;2023-04-25T05:12:00;14;13;
62054;PMS5003;48653;51.742;-1.256;2023-04-25T05:14:26;11;10;
62054;PMS5003;48653;51.742;-1.256;2023-04-25T05:16:51;12;10;
62054;PMS5003;48653;51.742;-1.256;2023-04-25T05:19:17;11;9;
62054;PMS5003;48653;51.742;-1.256;2023-04-25T05:21:42;13;10;
62054;PMS5003;48653;51.742;-1.256;2023-04-25T05:24:08;13;9;
62054;PMS5003;48653;51.742;-1.256;2023-04-25T05:26:34;18;12;
62054;PMS5003;48653;51.742;-1.256;2023-04-25T05:28:59;12;10;
62054;PMS5003;48653;51.742;-1.256;2023-04-25T05:31:25;15;10;
62054;PMS5003;48653;51.742;-1.256;2023-04-25T05:33:51;11;10;
62054;PMS5003;48653;51.742;-1.256;2023-04-25T05:36:16;9;8;
62054;PMS5003;48653;51.742;-1.256;2023-04-25T05:38:41;13;10;
62054;PMS5003;48653;51.742;-1.256;2023-04-25T05:41:06;11;9;
62054;PMS5003;48653;51.742;-1.256;2023-04-25T05:43:32;9;9;
62054;PMS5003;48653;51.742;-1.256;2023-04-25T05:45:57;11;11;
62054;PMS5003;48653;51.742;-1.256;2023-04-25T05:48:22;11;9;
62054;PMS5003;48653;51.742;-1.256;2023-04-25T05:50:48;11;9;
62054;PMS5003;48653;51.742;-1.256;2023-04-25T05:53:13;12;11;
62054;PMS5003;48653;51.742;-1.256;2023-04-25T05:55:39;12;10;
62054;PMS5003;48653;51.742;-1.256;2023-04-25T05:58:04;14;11;
62054;PMS5003;48653;51.742;-1.256;2023-04-25T06:00:29;10;8;
62054;PMS5003;48653;51.742;-1.256;2023-04-25T06:02:54;13;9;
62054;PMS5003;48653;51.742;-1.256;2023-04-25T06:05:20;17;11;
62054;PMS5003;48653;51.742;-1.256;2023-04-25T06:07:45;12;10;
62054;PMS5003;48653;51.742;-1.256;2023-04-25T06:10:10;12;11;
62054;PMS5003;48653;51.742;-1.256;2023-04-25T06:12:36;13;9;
62054;PMS5003;48653;51.742;-1.256;2023-04-25T06:15:02;16;12;
62054;PMS5003;48653;51.742;-1.256;2023-04-25T06:17:27;22;14;
62054;PMS5003;48653;51.742;-1.256;2023-04-25T06:19:52;10;9;
62054;PMS5003;48653;51.742;-1.256;2023-04-25T06:22:17;9;8;
62054;PMS5003;48653;51.742;-1.256;2023-04-25T06:24:42;11;11;
62054;PMS5003;48653;51.742;-1.256;2023-04-25T06:27:08;12;12;
62054;PMS5003;48653;51.742;-1.256;2023-04-25T06:29:33;14;10;
62054;PMS5003;48653;51.742;-1.256;2023-04-25T06:31:59;11;11;
62054;PMS5003;48653;51.742;-1.256;2023-04-25T06:34:24;11;9;
62054;PMS5003;48653;51.742;-1.256;2023-04-25T06:36:49;12;10;
62054;PMS5003;48653;51.742;-1.256;2023-04-25T06:39:14;14;10;
62054;PMS5003;48653;51.742;-1.256;2023-04-25T06:41:39;13;12;
62054;PMS5003;48653;51.742;-1.256;2023-04-25T06:44:05;13;8;
62054;PMS5003;48653;51.742;-1.256;2023-04-25T06:46:30;14;11;
62054;PMS5003;48653;51.742;-1.256;2023-04-25T06:48:55;13;12;
62054;PMS5003;48653;51.742;-1.256;2023-04-25T06:51:21;17;12;
62054;PMS5003;48653;51.742;-1.256;2023-04-25T06:53:46;16;13;
62054;PMS5003;48653;51.742;-1.256;2023-04-25T06:56:11;9;9;
62054;PMS5003;48653;51.742;-1.256;2023-04-25T06:58:37;14;12;
62054;PMS5003;48653;51.742;-1.256;2023-04-25T07:01:02;6;6;
62054;PMS5003;48653;51.742;-1.256;2023-04-25T07:03:28;15;10;
62054;PMS5003;48653;51.742;-1.256;2023-04-25T07:05:54;10;9;
62054;PMS5003;48653;51.742;-1.256;2023-04-25T07:08:20;12;9;
62054;PMS5003;48653;51.742;-1.256;2023-04-25T07:10:45;11;8;
62054;PMS5003;48653;51.742;-1.256;2023-04-25T07:13:10;10;8;
62054;PMS5003;48653;51.742;-1.256;2023-04-25T07:15:35;10;7;
62054;PMS5003;48653;51.742;-1.256;2023-04-25T07:18:01;8;8;
62054;PMS5003;48653;51.742;-1.256;2023-04-25T07:20:27;7;7;
62054;PMS5003;48653;51.742;-1.256;2023-04-25T07:22:52;8;6;
62054;PMS5003;48653;51.742;-1.256;2023-04-25T07:25:17;7;5;
62054;PMS5003;48653;51.742;-1.256;2023-04-25T07:27:42;8;7;
62054;PMS5003;48653;51.742;-1.256;2023-04-25T07:30:08;10;8;
62054;PMS5003;48653;51.742;-1.256;2023-04-25T07:32:33;5;5;
62054;PMS5003;48653;51.742;-1.256;2023-04-25T07:34:58;10;7;
62054;PMS5003;48653;51.742;-1.256;2023-04-25T07:37:23;7;7;
62054;PMS5003;48653;51.742;-1.256;2023-04-25T07:39:48;7;7;
62054;PMS5003;48653;51.742;-1.256;2023-04-25T07:42:14;11;8;
62054;PMS5003;48653;51.742;-1.256;2023-04-25T07:44:40;11;9;
62054;PMS5003;48653;51.742;-1.256;2023-04-25T07:47:05;8;7;
62054;PMS5003;48653;51.742;-1.256;2023-04-25T07:49:30;8;7;
62054;PMS5003;48653;51.742;-1.256;2023-04-25T07:51:56;14;11;
62054;PMS5003;48653;51.742;-1.256;2023-04-25T07:54:21;8;6;
62054;PMS5003;48653;51.742;-1.256;2023-04-25T07:56:47;7;5;
62054;PMS5003;48653;51.742;-1.256;2023-04-25T07:59:12;11;7;
62054;PMS5003;48653;51.742;-1.256;2023-04-25T08:01:37;6;6;
62054;PMS5003;48653;51.742;-1.256;2023-04-25T08:04:02;5;5;
62054;PMS5003;48653;51.742;-1.256;2023-04-25T08:06:27;11;7;
62054;PMS5003;48653;51.742;-1.256;2023-04-25T08:08:52;10;7;
62054;PMS5003;48653;51.742;-1.256;2023-04-25T08:11:18;6;5;
62054;PMS5003;48653;51.742;-1.256;2023-04-25T08:13:43;6;5;
62054;PMS5003;48653;51.742;-1.256;2023-04-25T08:16:09;10;10;
62054;PMS5003;48653;51.742;-1.256;2023-04-25T08:18:35;10;8;
62054;PMS5003;48653;51.742;-1.256;2023-04-25T08:21:00;10;9;
62054;PMS5003;48653;51.742;-1.256;2023-04-25T08:23:26;11;7;
62054;PMS5003;48653;51.742;-1.256;2023-04-25T08:25:52;6;4;
62054;PMS5003;48653;51.742;-1.256;2023-04-25T08:28:17;9;6;
62054;PMS5003;48653;51.742;-1.256;2023-04-25T08:30:42;6;6;
62054;PMS5003;48653;51.742;-1.256;2023-04-25T08:33:07;4;4;
62054;PMS5003;48653;51.742;-1.256;2023-04-25T08:35:33;4;3;
62054;PMS5003;48653;51.742;-1.256;2023-04-25T08:37:58;6;4;
62054;PMS5003;48653;51.742;-1.256;2023-04-25T08:40:23;6;5;
62054;PMS5003;48653;51.742;-1.256;2023-04-25T08:42:48;4;3;
62054;PMS5003;48653;51.742;-1.256;2023-04-25T08:45:13;9;4;
62054;PMS5003;48653;51.742;-1.256;2023-04-25T08:47:39;6;3;
62054;PMS5003;48653;51.742;-1.256;2023-04-25T08:50:04;2;2;
62054;PMS5003;48653;51.742;-1.256;2023-04-25T08:52:30;12;7;
62054;PMS5003;48653;51.742;-1.256;2023-04-25T08:54:55;5;3;
62054;PMS5003;48653;51.742;-1.256;2023-04-25T08:57:20;10;6;
62054;PMS5003;48653;51.742;-1.256;2023-04-25T08:59:46;6;6;
62054;PMS5003;48653;51.742;-1.256;2023-04-25T09:02:11;3;3;
62054;PMS5003;48653;51.742;-1.256;2023-04-25T09:04:36;7;5;
62054;PMS5003;48653;51.742;-1.256;2023-04-25T09:07:01;9;4;
62054;PMS5003;48653;51.742;-1.256;2023-04-25T09:09:27;4;2;
62054;PMS5003;48653;51.742;-1.256;2023-04-25T09:11:52;5;3;
62054;PMS5003;48653;51.742;-1.256;2023-04-25T09:14:17;3;3;
62054;PMS5003;48653;51.742;-1.256;2023-04-25T09:19:07;4;4;
62054;PMS5003;48653;51.742;-1.256;2023-04-25T09:21:32;7;3;
62054;PMS5003;48653;51.742;-1.256;2023-04-25T09:23:57;6;5;
62054;PMS5003;48653;51.742;-1.256;2023-04-25T09:26:22;9;5;
62054;PMS5003;48653;51.742;-1.256;2023-04-25T09:28:47;5;4;
62054;PMS5003;48653;51.742;-1.256;2023-04-25T09:31:20;2;2;
62054;PMS5003;48653;51.742;-1.256;2023-04-25T09:33:38;4;3;
62054;PMS5003;48653;51.742;-1.256;2023-04-25T09:36:04;6;4;
62054;PMS5003;48653;51.742;-1.256;2023-04-25T09:38:29;4;3;
62054;PMS5003;48653;51.742;-1.256;2023-04-25T09:40:53;3;3;
62054;PMS5003;48653;51.742;-1.256;2023-04-25T09:43:19;4;3;
62054;PMS5003;48653;51.742;-1.256;2023-04-25T09:45:43;2;2;
62054;PMS5003;48653;51.742;-1.256;2023-04-25T09:48:09;3;3;
62054;PMS5003;48653;51.742;-1.256;2023-04-25T09:50:34;6;4;
62054;PMS5003;48653;51.742;-1.256;2023-04-25T09:53:02;2;2;
62054;PMS5003;48653;51.742;-1.256;2023-04-25T09:55:24;5;3;
62054;PMS5003;48653;51.742;-1.256;2023-04-25T09:57:49;2;1;
62054;PMS5003;48653;51.742;-1.256;2023-04-25T10:00:15;6;3;
62054;PMS5003;48653;51.742;-1.256;2023-04-25T10:02:40;4;3;
62054;PMS5003;48653;51.742;-1.256;2023-04-25T10:05:06;4;3;
62054;PMS5003;48653;51.742;-1.256;2023-04-25T10:07:31;4;4;
62054;PMS5003;48653;51.742;-1.256;2023-04-25T10:09:58;3;3;
62054;PMS5003;48653;51.742;-1.256;2023-04-25T10:12:20;2;2;
62054;PMS5003;48653;51.742;-1.256;2023-04-25T10:14:46;4;2;
62054;PMS5003;48653;51.742;-1.256;2023-04-25T10:17:11;3;3;
62054;PMS5003;48653;51.742;-1.256;2023-04-25T10:19:36;4;3;
62054;PMS5003;48653;51.742;-1.256;2023-04-25T10:22:03;6;6;
62054;PMS5003;48653;51.742;-1.256;2023-04-25T10:24:26;2;2;
62054;PMS5003;48653;51.742;-1.256;2023-04-25T10:26:51;4;4;
62054;PMS5003;48653;51.742;-1.256;2023-04-25T10:31:45;5;4;
62054;PMS5003;48653;51.742;-1.256;2023-04-25T10:34:06;2;2;
62054;PMS5003;48653;51.742;-1.256;2023-04-25T10:36:32;2;2;
62054;PMS5003;48653;51.742;-1.256;2023-04-25T10:39:00;5;3;
62054;PMS5003;48653;51.742;-1.256;2023-04-25T10:41:21;3;3;
62054;PMS5003;48653;51.742;-1.256;2023-04-25T10:43:47;3;3;
62054;PMS5003;48653;51.742;-1.256;2023-04-25T10:46:13;4;3;
62054;PMS5003;48653;51.742;-1.256;2023-04-25T10:48:37;2;1;
62054;PMS5003;48653;51.742;-1.256;2023-04-25T10:51:07;3;3;
62054;PMS5003;48653;51.742;-1.256;2023-04-25T10:53:29;5;4;
62054;PMS5003;48653;51.742;-1.256;2023-04-25T10:55:52;3;2;
62054;PMS5003;48653;51.742;-1.256;2023-04-25T10:58:21;5;4;
62054;PMS5003;48653;51.742;-1.256;2023-04-25T11:00:42;2;1;
62054;PMS5003;48653;51.742;-1.256;2023-04-25T11:03:07;4;2;
62054;PMS5003;48653;51.742;-1.256;2023-04-25T11:05:33;3;2;
62054;PMS5003;48653;51.742;-1.256;2023-04-25T11:07:57;2;2;
62054;PMS5003;48653;51.742;-1.256;2023-04-25T11:10:25;5;3;
62054;PMS5003;48653;51.742;-1.256;2023-04-25T11:12:48;4;3;
62054;PMS5003;48653;51.742;-1.256;2023-04-25T11:15:13;6;4;
62054;PMS5003;48653;51.742;-1.256;2023-04-25T11:17:38;1;1;
62054;PMS5003;48653;51.742;-1.256;2023-04-25T11:20:03;2;2;
62054;PMS5003;48653;51.742;-1.256;2023-04-25T11:22:28;3;3;
62054;PMS5003;48653;51.742;-1.256;2023-04-25T11:24:53;7;3;
62054;PMS5003;48653;51.742;-1.256;2023-04-25T11:27:19;2;2;
62054;PMS5003;48653;51.742;-1.256;2023-04-25T11:29:43;4;3;
62054;PMS5003;48653;51.742;-1.256;2023-04-25T11:32:09;3;3;
62054;PMS5003;48653;51.742;-1.256;2023-04-25T11:34:34;5;2;
62054;PMS5003;48653;51.742;-1.256;2023-04-25T11:36:59;4;4;
62054;PMS5003;48653;51.742;-1.256;2023-04-25T11:39:24;2;2;
62054;PMS5003;48653;51.742;-1.256;2023-04-25T11:41:49;2;1;
62054;PMS5003;48653;51.742;-1.256;2023-04-25T11:44:15;4;3;
62054;PMS5003;48653;51.742;-1.256;2023-04-25T11:46:39;4;2;
62054;PMS5003;48653;51.742;-1.256;2023-04-25T11:49:04;3;3;
62054;PMS5003;48653;51.742;-1.256;2023-04-25T11:51:30;4;3;
62054;PMS5003;48653;51.742;-1.256;2023-04-25T11:53:55;5;4;
62054;PMS5003;48653;51.742;-1.256;2023-04-25T11:56:20;3;3;
62054;PMS5003;48653;51.742;-1.256;2023-04-25T12:01:10;4;4;
62054;PMS5003;48653;51.742;-1.256;2023-04-25T12:03:37;5;3;
62054;PMS5003;48653;51.742;-1.256;2023-04-25T12:06:02;5;3;
62054;PMS5003;48653;51.742;-1.256;2023-04-25T12:08:25;2;2;
62054;PMS5003;48653;51.742;-1.256;2023-04-25T12:10:50;2;2;
62054;PMS5003;48653;51.742;-1.256;2023-04-25T12:13:21;3;3;
62054;PMS5003;48653;51.742;-1.256;2023-04-25T12:15:41;2;2;
62054;PMS5003;48653;51.742;-1.256;2023-04-25T12:18:06;3;3;
62054;PMS5003;48653;51.742;-1.256;2023-04-25T12:20:31;2;2;
62054;PMS5003;48653;51.742;-1.256;2023-04-25T12:22:56;5;4;
62054;PMS5003;48653;51.742;-1.256;2023-04-25T12:27:46;5;4;
62054;PMS5003;48653;51.742;-1.256;2023-04-25T12:30:11;3;3;
62054;PMS5003;48653;51.742;-1.256;2023-04-25T12:32:36;9;6;
62054;PMS5003;48653;51.742;-1.256;2023-04-25T12:35:01;3;3;
62054;PMS5003;48653;51.742;-1.256;2023-04-25T12:37:28;3;3;
62054;PMS5003;48653;51.742;-1.256;2023-04-25T12:39:51;3;3;
62054;PMS5003;48653;51.742;-1.256;2023-04-25T12:42:16;8;5;
62054;PMS5003;48653;51.742;-1.256;2023-04-25T12:44:42;3;3;
62054;PMS5003;48653;51.742;-1.256;2023-04-25T12:47:07;6;5;
62054;PMS5003;48653;51.742;-1.256;2023-04-25T12:49:32;3;3;
62054;PMS5003;48653;51.742;-1.256;2023-04-25T12:51:57;3;3;
62054;PMS5003;48653;51.742;-1.256;2023-04-25T12:54:22;3;3;
62054;PMS5003;48653;51.742;-1.256;2023-04-25T12:56:47;7;4;
62054;PMS5003;48653;51.742;-1.256;2023-04-25T12:59:12;4;4;
62054;PMS5003;48653;51.742;-1.256;2023-04-25T13:01:38;4;4;
62054;PMS5003;48653;51.742;-1.256;2023-04-25T13:04:03;6;5;
62054;PMS5003;48653;51.742;-1.256;2023-04-25T13:06:28;2;2;
62054;PMS5003;48653;51.742;-1.256;2023-04-25T13:08:53;3;3;
62054;PMS5003;48653;51.742;-1.256;2023-04-25T13:11:18;4;2;
62054;PMS5003;48653;51.742;-1.256;2023-04-25T13:13:43;7;5;
62054;PMS5003;48653;51.742;-1.256;2023-04-25T13:16:08;6;4;
62054;PMS5003;48653;51.742;-1.256;2023-04-25T13:18:33;6;5;
62054;PMS5003;48653;51.742;-1.256;2023-04-25T13:20:58;3;2;
62054;PMS5003;48653;51.742;-1.256;2023-04-25T13:23:24;5;5;
62054;PMS5003;48653;51.742;-1.256;2023-04-25T13:25:48;6;3;
62054;PMS5003;48653;51.742;-1.256;2023-04-25T13:28:13;5;4;
62054;PMS5003;48653;51.742;-1.256;2023-04-25T13:30:38;3;3;
62054;PMS5003;48653;51.742;-1.256;2023-04-25T13:33:04;7;6;
62054;PMS5003;48653;51.742;-1.256;2023-04-25T13:35:29;6;5;
62054;PMS5003;48653;51.742;-1.256;2023-04-25T13:37:54;6;5;
62054;PMS5003;48653;51.742;-1.256;2023-04-25T13:40:19;5;4;
62054;PMS5003;48653;51.742;-1.256;2023-04-25T13:42:44;4;4;
62054;PMS5003;48653;51.742;-1.256;2023-04-25T13:45:09;7;5;
62054;PMS5003;48653;51.742;-1.256;2023-04-25T13:47:34;7;6;
62054;PMS5003;48653;51.742;-1.256;2023-04-25T13:49:59;3;3;
62054;PMS5003;48653;51.742;-1.256;2023-04-25T13:52:24;8;7;
62054;PMS5003;48653;51.742;-1.256;2023-04-25T13:54:49;6;5;
62054;PMS5003;48653;51.742;-1.256;2023-04-25T13:57:14;5;4;
62054;PMS5003;48653;51.742;-1.256;2023-04-25T13:59:39;5;4;
62054;PMS5003;48653;51.742;-1.256;2023-04-25T14:02:05;9;5;
62054;PMS5003;48653;51.742;-1.256;2023-04-25T14:04:30;4;4;
62054;PMS5003;48653;51.742;-1.256;2023-04-25T14:06:55;4;4;
62054;PMS5003;48653;51.742;-1.256;2023-04-25T14:09:20;5;5;
62054;PMS5003;48653;51.742;-1.256;2023-04-25T14:11:45;4;4;
62054;PMS5003;48653;51.742;-1.256;2023-04-25T14:14:10;5;5;
62054;PMS5003;48653;51.742;-1.256;2023-04-25T14:16:35;4;3;
62054;PMS5003;48653;51.742;-1.256;2023-04-25T14:19:00;5;5;
62054;PMS5003;48653;51.742;-1.256;2023-04-25T14:21:26;6;4;
62054;PMS5003;48653;51.742;-1.256;2023-04-25T14:23:51;3;3;
62054;PMS5003;48653;51.742;-1.256;2023-04-25T14:26:16;6;5;
62054;PMS5003;48653;51.742;-1.256;2023-04-25T14:28:41;5;5;
62054;PMS5003;48653;51.742;-1.256;2023-04-25T14:31:06;6;5;
62054;PMS5003;48653;51.742;-1.256;2023-04-25T14:33:31;4;4;
62054;PMS5003;48653;51.742;-1.256;2023-04-25T14:35:56;6;6;
62054;PMS5003;48653;51.742;-1.256;2023-04-25T14:38:22;4;3;
62054;PMS5003;48653;51.742;-1.256;2023-04-25T14:40:47;4;4;
62054;PMS5003;48653;51.742;-1.256;2023-04-25T14:43:12;9;4;
62054;PMS5003;48653;51.742;-1.256;2023-04-25T14:45:37;7;6;
62054;PMS5003;48653;51.742;-1.256;2023-04-25T14:48:02;6;4;
62054;PMS5003;48653;51.742;-1.256;2023-04-25T14:50:27;6;5;
62054;PMS5003;48653;51.742;-1.256;2023-04-25T14:52:52;7;6;
62054;PMS5003;48653;51.742;-1.256;2023-04-25T14:55:17;3;3;
62054;PMS5003;48653;51.742;-1.256;2023-04-25T14:57:42;7;6;
62054;PMS5003;48653;51.742;-1.256;2023-04-25T15:00:08;4;4;
62054;PMS5003;48653;51.742;-1.256;2023-04-25T15:02:32;5;5;
62054;PMS5003;48653;51.742;-1.256;2023-04-25T15:04:58;8;7;
62054;PMS5003;48653;51.742;-1.256;2023-04-25T15:07:23;4;4;
62054;PMS5003;48653;51.742;-1.256;2023-04-25T15:09:48;8;5;
62054;PMS5003;48653;51.742;-1.256;2023-04-25T15:12:13;4;4;
62054;PMS5003;48653;51.742;-1.256;2023-04-25T15:14:38;6;5;
62054;PMS5003;48653;51.742;-1.256;2023-04-25T15:17:03;4;4;
62054;PMS5003;48653;51.742;-1.256;2023-04-25T15:19:28;6;6;
62054;PMS5003;48653;51.742;-1.256;2023-04-25T15:21:53;8;7;
62054;PMS5003;48653;51.742;-1.256;2023-04-25T15:24:18;7;6;
62054;PMS5003;48653;51.742;-1.256;2023-04-25T15:26:43;6;4;
62054;PMS5003;48653;51.742;-1.256;2023-04-25T15:29:08;5;5;
62054;PMS5003;48653;51.742;-1.256;2023-04-25T15:31:34;7;6;
62054;PMS5003;48653;51.742;-1.256;2023-04-25T15:33:59;5;5;
62054;PMS5003;48653;51.742;-1.256;2023-04-25T15:36:24;7;6;
62054;PMS5003;48653;51.742;-1.256;2023-04-25T15:38:49;4;4;
62054;PMS5003;48653;51.742;-1.256;2023-04-25T15:41:14;8;6;
62054;PMS5003;48653;51.742;-1.256;2023-04-25T15:43:39;7;6;
62054;PMS5003;48653;51.742;-1.256;2023-04-25T15:46:04;5;4;
62054;PMS5003;48653;51.742;-1.256;2023-04-25T15:48:29;6;6;
62054;PMS5003;48653;51.742;-1.256;2023-04-25T15:50:54;5;5;
62054;PMS5003;48653;51.742;-1.256;2023-04-25T15:53:20;5;4;
62054;PMS5003;48653;51.742;-1.256;2023-04-25T15:55:45;5;5;
62054;PMS5003;48653;51.742;-1.256;2023-04-25T15:58:10;8;5;
62054;PMS5003;48653;51.742;-1.256;2023-04-25T16:00:35;7;5;
62054;PMS5003;48653;51.742;-1.256;2023-04-25T16:03:00;6;6;
62054;PMS5003;48653;51.742;-1.256;2023-04-25T16:05:25;7;7;
62054;PMS5003;48653;51.742;-1.256;2023-04-25T16:07:51;7;7;
62054;PMS5003;48653;51.742;-1.256;2023-04-25T16:10:17;5;5;
62054;PMS5003;48653;51.742;-1.256;2023-04-25T16:12:41;6;6;
62054;PMS5003;48653;51.742;-1.256;2023-04-25T16:15:07;6;6;
62054;PMS5003;48653;51.742;-1.256;2023-04-25T16:17:31;9;7;
62054;PMS5003;48653;51.742;-1.256;2023-04-25T16:19:57;6;5;
62054;PMS5003;48653;51.742;-1.256;2023-04-25T16:22:22;5;5;
62054;PMS5003;48653;51.742;-1.256;2023-04-25T16:24:47;4;4;